sensor_id;sensor_type;location;lat;lon;timestamp;temperature;humidity
21592;DHT22;10958;50.892;3.992;2023-08-24T00:00:25;20.50;99.90
21592;DHT22;10958;50.892;3.992;2023-08-24T00:02:51;20.50;99.90
21592;DHT22;10958;50.892;3.992;2023-08-24T00:05:16;20.40;99.90
21592;DHT22;10958;50.892;3.992;2023-08-24T00:07:46;20.40;99.90
21592;DHT22;10958;50.892;3.992;2023-08-24T00:10:14;20.50;99.90
21592;DHT22;10958;50.892;3.992;2023-08-24T00:12:40;20.70;99.90
21592;DHT22;10958;50.892;3.992;2023-08-24T00:15:09;20.70;99.90
21592;DHT22;10958;50.892;3.992;2023-08-24T00:17:36;20.60;99.90
21592;DHT22;10958;50.892;3.992;2023-08-24T00:20:04;20.50;99.90
21592;DHT22;10958;50.892;3.992;2023-08-24T00:22:30;20.50;99.90
21592;DHT22;10958;50.892;3.992;2023-08-24T00:24:56;20.50;99.90
21592;DHT22;10958;50.892;3.992;2023-08-24T00:27:22;20.50;99.90
21592;DHT22;10958;50.892;3.992;2023-08-24T00:29:48;20.50;99.90
21592;DHT22;10958;50.892;3.992;2023-08-24T00:32:16;20.60;99.90
21592;DHT22;10958;50.892;3.992;2023-08-24T00:34:43;20.70;99.90
21592;DHT22;10958;50.892;3.992;2023-08-24T00:37:08;20.80;99.90
21592;DHT22;10958;50.892;3.992;2023-08-24T00:39:34;20.90;99.90
21592;DHT22;10958;50.892;3.992;2023-08-24T00:42:00;20.80;99.90
21592;DHT22;10958;50.892;3.992;2023-08-24T00:44:26;20.80;99.90
21592;DHT22;10958;50.892;3.992;2023-08-24T00:46:52;21.00;99.90
21592;DHT22;10958;50.892;3.992;2023-08-24T00:49:21;21.00;99.90
21592;DHT22;10958;50.892;3.992;2023-08-24T00:51:47;21.20;99.90
21592;DHT22;10958;50.892;3.992;2023-08-24T00:54:15;21.40;99.90
21592;DHT22;10958;50.892;3.992;2023-08-24T00:56:41;21.40;99.90
21592;DHT22;10958;50.892;3.992;2023-08-24T00:59:09;21.40;99.90
21592;DHT22;10958;50.892;3.992;2023-08-24T01:01:39;21.20;99.90
21592;DHT22;10958;50.892;3.992;2023-08-24T01:04:10;21.20;99.90
21592;DHT22;10958;50.892;3.992;2023-08-24T01:06:36;21.30;99.90
21592;DHT22;10958;50.892;3.992;2023-08-24T01:09:03;21.60;99.90
21592;DHT22;10958;50.892;3.992;2023-08-24T01:16:53;21.70;99.90
21592;DHT22;10958;50.892;3.992;2023-08-24T01:19:44;21.80;99.90
21592;DHT22;10958;50.892;3.992;2023-08-24T01:25:31;21.80;99.90
21592;DHT22;10958;50.892;3.992;2023-08-24T01:28:01;21.90;99.90
21592;DHT22;10958;50.892;3.992;2023-08-24T01:30:30;21.70;99.90
21592;DHT22;10958;50.892;3.992;2023-08-24T01:32:58;21.70;99.90
21592;DHT22;10958;50.892;3.992;2023-08-24T01:35:24;21.80;99.90
21592;DHT22;10958;50.892;3.992;2023-08-24T01:37:50;21.90;99.90
21592;DHT22;10958;50.892;3.992;2023-08-24T01:40:23;21.80;99.90
21592;DHT22;10958;50.892;3.992;2023-08-24T01:42:56;21.70;99.90
21592;DHT22;10958;50.892;3.992;2023-08-24T01:45:27;21.80;99.90
21592;DHT22;10958;50.892;3.992;2023-08-24T01:47:54;21.90;99.90
21592;DHT22;10958;50.892;3.992;2023-08-24T01:50:22;21.90;99.90
21592;DHT22;10958;50.892;3.992;2023-08-24T01:52:49;21.70;99.90
21592;DHT22;10958;50.892;3.992;2023-08-24T01:55:19;21.50;99.90
21592;DHT22;10958;50.892;3.992;2023-08-24T01:57:45;21.50;99.90
21592;DHT22;10958;50.892;3.992;2023-08-24T02:00:14;21.30;99.90
21592;DHT22;10958;50.892;3.992;2023-08-24T02:02:42;21.20;99.90
21592;DHT22;10958;50.892;3.992;2023-08-24T02:05:08;20.60;99.90
21592;DHT22;10958;50.892;3.992;2023-08-24T02:07:34;20.40;99.90
21592;DHT22;10958;50.892;3.992;2023-08-24T02:09:59;20.40;99.90
21592;DHT22;10958;50.892;3.992;2023-08-24T02:12:26;20.40;99.90
21592;DHT22;10958;50.892;3.992;2023-08-24T02:14:51;20.40;99.90
21592;DHT22;10958;50.892;3.992;2023-08-24T02:17:17;20.40;99.90
21592;DHT22;10958;50.892;3.992;2023-08-24T02:19:43;20.50;99.90
21592;DHT22;10958;50.892;3.992;2023-08-24T02:22:09;20.70;99.90
21592;DHT22;10958;50.892;3.992;2023-08-24T02:24:35;20.70;99.90
21592;DHT22;10958;50.892;3.992;2023-08-24T02:27:01;20.40;99.90
21592;DHT22;10958;50.892;3.992;2023-08-24T02:29:26;20.30;99.90
21592;DHT22;10958;50.892;3.992;2023-08-24T02:31:53;20.40;99.90
21592;DHT22;10958;50.892;3.992;2023-08-24T02:34:18;20.30;99.90
21592;DHT22;10958;50.892;3.992;2023-08-24T02:36:46;20.40;99.90
21592;DHT22;10958;50.892;3.992;2023-08-24T02:39:12;20.40;99.90
21592;DHT22;10958;50.892;3.992;2023-08-24T02:41:38;20.30;99.90
21592;DHT22;10958;50.892;3.992;2023-08-24T02:44:04;20.20;99.90
21592;DHT22;10958;50.892;3.992;2023-08-24T02:46:30;20.40;99.90
21592;DHT22;10958;50.892;3.992;2023-08-24T02:48:56;20.60;99.90
21592;DHT22;10958;50.892;3.992;2023-08-24T02:51:22;20.70;99.90
21592;DHT22;10958;50.892;3.992;2023-08-24T02:53:49;20.90;99.90
21592;DHT22;10958;50.892;3.992;2023-08-24T02:56:15;21.00;99.90
21592;DHT22;10958;50.892;3.992;2023-08-24T02:58:42;20.80;99.90
21592;DHT22;10958;50.892;3.992;2023-08-24T03:01:08;20.60;99.90
21592;DHT22;10958;50.892;3.992;2023-08-24T03:03:35;20.40;99.90
21592;DHT22;10958;50.892;3.992;2023-08-24T03:06:03;20.30;99.90
21592;DHT22;10958;50.892;3.992;2023-08-24T03:08:30;20.30;99.90
21592;DHT22;10958;50.892;3.992;2023-08-24T03:10:59;20.10;99.90
21592;DHT22;10958;50.892;3.992;2023-08-24T03:13:25;20.30;99.90
21592;DHT22;10958;50.892;3.992;2023-08-24T03:15:51;20.40;99.90
21592;DHT22;10958;50.892;3.992;2023-08-24T03:18:21;20.60;99.90
21592;DHT22;10958;50.892;3.992;2023-08-24T03:20:48;20.80;99.90
21592;DHT22;10958;50.892;3.992;2023-08-24T03:23:15;20.90;99.90
21592;DHT22;10958;50.892;3.992;2023-08-24T03:25:42;21.00;99.90
21592;DHT22;10958;50.892;3.992;2023-08-24T03:28:09;20.80;99.90
21592;DHT22;10958;50.892;3.992;2023-08-24T03:30:39;20.70;99.90
21592;DHT22;10958;50.892;3.992;2023-08-24T03:33:09;20.40;99.90
21592;DHT22;10958;50.892;3.992;2023-08-24T03:35:35;20.60;99.90
21592;DHT22;10958;50.892;3.992;2023-08-24T03:38:04;20.70;99.90
21592;DHT22;10958;50.892;3.992;2023-08-24T03:40:31;20.70;99.90
21592;DHT22;10958;50.892;3.992;2023-08-24T03:42:57;20.80;99.90
21592;DHT22;10958;50.892;3.992;2023-08-24T03:45:25;20.90;99.90
21592;DHT22;10958;50.892;3.992;2023-08-24T03:47:51;21.10;99.90
21592;DHT22;10958;50.892;3.992;2023-08-24T03:50:17;21.00;99.90
21592;DHT22;10958;50.892;3.992;2023-08-24T03:52:42;21.00;99.90
21592;DHT22;10958;50.892;3.992;2023-08-24T03:55:11;21.10;99.90
21592;DHT22;10958;50.892;3.992;2023-08-24T03:57:36;21.10;99.90
21592;DHT22;10958;50.892;3.992;2023-08-24T04:00:04;21.20;99.90
21592;DHT22;10958;50.892;3.992;2023-08-24T04:02:32;21.30;99.90
21592;DHT22;10958;50.892;3.992;2023-08-24T04:05:00;21.50;99.90
21592;DHT22;10958;50.892;3.992;2023-08-24T04:07:26;21.70;99.90
21592;DHT22;10958;50.892;3.992;2023-08-24T04:09:52;21.70;99.90
21592;DHT22;10958;50.892;3.992;2023-08-24T04:12:17;21.60;99.90
21592;DHT22;10958;50.892;3.992;2023-08-24T04:14:43;21.50;99.90
21592;DHT22;10958;50.892;3.992;2023-08-24T04:17:09;21.50;99.90
21592;DHT22;10958;50.892;3.992;2023-08-24T04:19:38;21.10;99.90
21592;DHT22;10958;50.892;3.992;2023-08-24T04:22:06;20.70;99.90
21592;DHT22;10958;50.892;3.992;2023-08-24T04:24:32;20.40;99.90
21592;DHT22;10958;50.892;3.992;2023-08-24T04:26:58;20.60;99.90
21592;DHT22;10958;50.892;3.992;2023-08-24T04:29:24;20.60;99.90
21592;DHT22;10958;50.892;3.992;2023-08-24T04:31:53;20.90;99.90
21592;DHT22;10958;50.892;3.992;2023-08-24T04:34:18;20.90;99.90
21592;DHT22;10958;50.892;3.992;2023-08-24T04:36:44;20.90;99.90
21592;DHT22;10958;50.892;3.992;2023-08-24T04:39:10;20.90;99.90
21592;DHT22;10958;50.892;3.992;2023-08-24T04:41:36;20.80;99.90
21592;DHT22;10958;50.892;3.992;2023-08-24T04:44:02;20.30;99.90
21592;DHT22;10958;50.892;3.992;2023-08-24T04:46:27;20.00;99.90
21592;DHT22;10958;50.892;3.992;2023-08-24T04:48:53;19.90;99.90
21592;DHT22;10958;50.892;3.992;2023-08-24T04:51:21;19.80;99.90
21592;DHT22;10958;50.892;3.992;2023-08-24T04:53:49;19.70;99.90
21592;DHT22;10958;50.892;3.992;2023-08-24T04:56:16;19.70;99.90
21592;DHT22;10958;50.892;3.992;2023-08-24T04:58:54;19.40;99.90
21592;DHT22;10958;50.892;3.992;2023-08-24T05:01:22;19.50;99.90
21592;DHT22;10958;50.892;3.992;2023-08-24T05:03:48;19.80;99.90
21592;DHT22;10958;50.892;3.992;2023-08-24T05:06:14;20.10;99.90
21592;DHT22;10958;50.892;3.992;2023-08-24T05:08:40;20.30;99.90
21592;DHT22;10958;50.892;3.992;2023-08-24T05:11:17;20.40;99.90
21592;DHT22;10958;50.892;3.992;2023-08-24T05:13:43;20.50;99.90
21592;DHT22;10958;50.892;3.992;2023-08-24T05:16:12;20.40;99.90
21592;DHT22;10958;50.892;3.992;2023-08-24T05:18:38;20.50;99.90
21592;DHT22;10958;50.892;3.992;2023-08-24T05:21:04;20.60;99.90
21592;DHT22;10958;50.892;3.992;2023-08-24T05:23:31;20.80;99.90
21592;DHT22;10958;50.892;3.992;2023-08-24T05:25:58;20.40;99.90
21592;DHT22;10958;50.892;3.992;2023-08-24T05:28:25;20.20;99.90
21592;DHT22;10958;50.892;3.992;2023-08-24T05:30:55;20.10;99.90
21592;DHT22;10958;50.892;3.992;2023-08-24T05:33:21;20.00;99.90
21592;DHT22;10958;50.892;3.992;2023-08-24T05:35:51;20.20;99.90
21592;DHT22;10958;50.892;3.992;2023-08-24T05:38:18;20.50;99.90
21592;DHT22;10958;50.892;3.992;2023-08-24T05:40:47;20.70;99.90
21592;DHT22;10958;50.892;3.992;2023-08-24T05:43:13;20.60;99.90
21592;DHT22;10958;50.892;3.992;2023-08-24T05:45:41;20.60;99.90
21592;DHT22;10958;50.892;3.992;2023-08-24T05:48:09;20.60;99.90
21592;DHT22;10958;50.892;3.992;2023-08-24T05:50:35;20.70;99.90
21592;DHT22;10958;50.892;3.992;2023-08-24T05:53:05;20.70;99.90
21592;DHT22;10958;50.892;3.992;2023-08-24T05:55:31;20.90;99.90
21592;DHT22;10958;50.892;3.992;2023-08-24T05:57:56;20.90;99.90
21592;DHT22;10958;50.892;3.992;2023-08-24T06:00:22;20.90;99.90
21592;DHT22;10958;50.892;3.992;2023-08-24T06:02:48;20.70;99.90
21592;DHT22;10958;50.892;3.992;2023-08-24T06:05:14;20.70;99.90
21592;DHT22;10958;50.892;3.992;2023-08-24T06:07:40;20.90;99.90
21592;DHT22;10958;50.892;3.992;2023-08-24T06:10:06;21.00;99.90
21592;DHT22;10958;50.892;3.992;2023-08-24T06:12:34;21.00;99.90
21592;DHT22;10958;50.892;3.992;2023-08-24T06:15:00;21.10;99.90
21592;DHT22;10958;50.892;3.992;2023-08-24T06:17:29;21.00;99.90
21592;DHT22;10958;50.892;3.992;2023-08-24T06:19:57;21.00;99.90
21592;DHT22;10958;50.892;3.992;2023-08-24T06:22:26;21.30;99.90
21592;DHT22;10958;50.892;3.992;2023-08-24T06:24:51;21.80;99.90
21592;DHT22;10958;50.892;3.992;2023-08-24T06:27:19;22.60;99.90
21592;DHT22;10958;50.892;3.992;2023-08-24T06:29:45;23.30;99.90
21592;DHT22;10958;50.892;3.992;2023-08-24T06:32:13;23.90;99.90
21592;DHT22;10958;50.892;3.992;2023-08-24T06:34:41;24.30;99.90
21592;DHT22;10958;50.892;3.992;2023-08-24T06:37:06;24.50;99.90
21592;DHT22;10958;50.892;3.992;2023-08-24T06:39:36;24.30;99.90
21592;DHT22;10958;50.892;3.992;2023-08-24T06:42:01;24.30;99.90
21592;DHT22;10958;50.892;3.992;2023-08-24T06:44:30;24.40;99.90
21592;DHT22;10958;50.892;3.992;2023-08-24T06:46:56;24.50;99.90
21592;DHT22;10958;50.892;3.992;2023-08-24T06:49:24;24.90;99.90
21592;DHT22;10958;50.892;3.992;2023-08-24T06:51:50;25.30;99.90
21592;DHT22;10958;50.892;3.992;2023-08-24T06:54:16;25.00;99.90
21592;DHT22;10958;50.892;3.992;2023-08-24T06:56:45;25.30;99.90
21592;DHT22;10958;50.892;3.992;2023-08-24T06:59:10;25.30;99.90
21592;DHT22;10958;50.892;3.992;2023-08-24T07:01:38;25.80;99.90
21592;DHT22;10958;50.892;3.992;2023-08-24T07:04:04;26.10;99.90
21592;DHT22;10958;50.892;3.992;2023-08-24T07:06:33;26.30;99.90
21592;DHT22;10958;50.892;3.992;2023-08-24T07:09:00;26.40;99.90
21592;DHT22;10958;50.892;3.992;2023-08-24T07:11:32;26.50;99.90
21592;DHT22;10958;50.892;3.992;2023-08-24T07:13:57;26.50;99.90
21592;DHT22;10958;50.892;3.992;2023-08-24T07:16:25;26.10;99.90
21592;DHT22;10958;50.892;3.992;2023-08-24T07:18:54;25.80;99.90
21592;DHT22;10958;50.892;3.992;2023-08-24T07:21:19;25.20;99.90
21592;DHT22;10958;50.892;3.992;2023-08-24T07:23:46;24.80;99.90
21592;DHT22;10958;50.892;3.992;2023-08-24T07:26:12;24.80;99.90
21592;DHT22;10958;50.892;3.992;2023-08-24T07:28:38;24.20;99.90
21592;DHT22;10958;50.892;3.992;2023-08-24T07:31:11;24.30;99.90
21592;DHT22;10958;50.892;3.992;2023-08-24T07:33:40;24.60;99.90
21592;DHT22;10958;50.892;3.992;2023-08-24T07:36:06;24.40;99.90
21592;DHT22;10958;50.892;3.992;2023-08-24T07:38:32;24.50;99.90
21592;DHT22;10958;50.892;3.992;2023-08-24T07:40:58;24.40;99.90
21592;DHT22;10958;50.892;3.992;2023-08-24T07:43:24;24.50;99.90
21592;DHT22;10958;50.892;3.992;2023-08-24T07:45:52;24.70;99.90
21592;DHT22;10958;50.892;3.992;2023-08-24T07:48:18;24.30;99.90
21592;DHT22;10958;50.892;3.992;2023-08-24T07:50:43;24.30;99.90
21592;DHT22;10958;50.892;3.992;2023-08-24T07:53:09;24.40;99.90
21592;DHT22;10958;50.892;3.992;2023-08-24T07:55:36;24.30;99.90
21592;DHT22;10958;50.892;3.992;2023-08-24T07:58:01;24.20;99.90
21592;DHT22;10958;50.892;3.992;2023-08-24T08:00:35;24.10;99.90
21592;DHT22;10958;50.892;3.992;2023-08-24T08:03:01;24.10;99.90
21592;DHT22;10958;50.892;3.992;2023-08-24T08:05:27;24.00;99.90
21592;DHT22;10958;50.892;3.992;2023-08-24T08:07:55;23.90;99.90
21592;DHT22;10958;50.892;3.992;2023-08-24T08:10:21;23.90;99.90
21592;DHT22;10958;50.892;3.992;2023-08-24T08:12:47;23.90;99.90
21592;DHT22;10958;50.892;3.992;2023-08-24T08:15:13;23.70;99.90
21592;DHT22;10958;50.892;3.992;2023-08-24T08:17:39;23.70;99.90
21592;DHT22;10958;50.892;3.992;2023-08-24T08:20:05;24.00;99.90
21592;DHT22;10958;50.892;3.992;2023-08-24T08:22:31;23.90;99.90
21592;DHT22;10958;50.892;3.992;2023-08-24T08:25:01;23.60;99.90
21592;DHT22;10958;50.892;3.992;2023-08-24T08:27:27;23.40;99.90
21592;DHT22;10958;50.892;3.992;2023-08-24T08:29:53;23.20;99.90
21592;DHT22;10958;50.892;3.992;2023-08-24T08:32:21;22.90;99.90
21592;DHT22;10958;50.892;3.992;2023-08-24T08:34:55;23.00;99.90
21592;DHT22;10958;50.892;3.992;2023-08-24T08:37:27;22.90;99.90
21592;DHT22;10958;50.892;3.992;2023-08-24T08:39:53;23.20;99.90
21592;DHT22;10958;50.892;3.992;2023-08-24T08:42:19;23.50;99.90
21592;DHT22;10958;50.892;3.992;2023-08-24T08:44:46;23.60;99.90
21592;DHT22;10958;50.892;3.992;2023-08-24T08:47:12;23.90;99.90
21592;DHT22;10958;50.892;3.992;2023-08-24T08:49:39;24.00;99.90
21592;DHT22;10958;50.892;3.992;2023-08-24T08:52:06;24.00;99.90
21592;DHT22;10958;50.892;3.992;2023-08-24T08:54:34;23.60;99.90
21592;DHT22;10958;50.892;3.992;2023-08-24T08:57:02;23.30;99.90
21592;DHT22;10958;50.892;3.992;2023-08-24T08:59:29;23.20;99.90
21592;DHT22;10958;50.892;3.992;2023-08-24T09:01:56;23.40;99.90
21592;DHT22;10958;50.892;3.992;2023-08-24T09:04:23;23.30;99.90
21592;DHT22;10958;50.892;3.992;2023-08-24T09:06:49;23.00;99.90
21592;DHT22;10958;50.892;3.992;2023-08-24T09:09:17;22.70;99.90
21592;DHT22;10958;50.892;3.992;2023-08-24T09:11:46;22.50;99.90
21592;DHT22;10958;50.892;3.992;2023-08-24T09:14:13;22.30;99.90
21592;DHT22;10958;50.892;3.992;2023-08-24T09:16:41;22.40;99.90
21592;DHT22;10958;50.892;3.992;2023-08-24T09:19:11;22.50;99.90
21592;DHT22;10958;50.892;3.992;2023-08-24T09:21:40;22.60;99.90
21592;DHT22;10958;50.892;3.992;2023-08-24T09:24:08;22.70;99.90
21592;DHT22;10958;50.892;3.992;2023-08-24T09:26:36;22.70;99.90
21592;DHT22;10958;50.892;3.992;2023-08-24T09:29:16;22.50;99.90
21592;DHT22;10958;50.892;3.992;2023-08-24T09:31:43;22.40;99.90
21592;DHT22;10958;50.892;3.992;2023-08-24T09:34:09;22.40;99.90
21592;DHT22;10958;50.892;3.992;2023-08-24T09:36:38;22.30;99.90
21592;DHT22;10958;50.892;3.992;2023-08-24T09:39:04;22.30;99.90
21592;DHT22;10958;50.892;3.992;2023-08-24T09:41:38;22.30;99.90
21592;DHT22;10958;50.892;3.992;2023-08-24T09:44:05;22.20;99.90
21592;DHT22;10958;50.892;3.992;2023-08-24T09:46:31;22.30;99.90
21592;DHT22;10958;50.892;3.992;2023-08-24T09:48:56;22.10;99.90
21592;DHT22;10958;50.892;3.992;2023-08-24T09:51:28;22.00;99.90
21592;DHT22;10958;50.892;3.992;2023-08-24T09:53:57;22.00;99.90
21592;DHT22;10958;50.892;3.992;2023-08-24T09:56:25;22.00;99.90
21592;DHT22;10958;50.892;3.992;2023-08-24T09:58:54;21.90;99.90
21592;DHT22;10958;50.892;3.992;2023-08-24T10:03:34;21.70;99.90
21592;DHT22;10958;50.892;3.992;2023-08-24T10:06:03;21.60;99.90
21592;DHT22;10958;50.892;3.992;2023-08-24T10:08:37;21.40;99.90
21592;DHT22;10958;50.892;3.992;2023-08-24T10:11:05;21.20;99.90
21592;DHT22;10958;50.892;3.992;2023-08-24T10:16:09;21.30;99.90
21592;DHT22;10958;50.892;3.992;2023-08-24T10:18:36;21.20;99.90
21592;DHT22;10958;50.892;3.992;2023-08-24T10:21:02;21.20;99.90
21592;DHT22;10958;50.892;3.992;2023-08-24T10:23:32;21.30;99.90
21592;DHT22;10958;50.892;3.992;2023-08-24T10:26:00;21.30;99.90
21592;DHT22;10958;50.892;3.992;2023-08-24T10:28:30;21.40;99.90
21592;DHT22;10958;50.892;3.992;2023-08-24T10:30:57;21.40;99.90
21592;DHT22;10958;50.892;3.992;2023-08-24T10:33:27;21.70;99.90
21592;DHT22;10958;50.892;3.992;2023-08-24T10:35:53;21.80;99.90
21592;DHT22;10958;50.892;3.992;2023-08-24T10:38:28;21.90;99.90
21592;DHT22;10958;50.892;3.992;2023-08-24T10:41:01;22.20;99.90
21592;DHT22;10958;50.892;3.992;2023-08-24T10:43:30;22.50;99.90
21592;DHT22;10958;50.892;3.992;2023-08-24T10:46:00;22.60;99.90
21592;DHT22;10958;50.892;3.992;2023-08-24T10:48:29;22.70;99.90
21592;DHT22;10958;50.892;3.992;2023-08-24T10:53:45;23.00;99.90
21592;DHT22;10958;50.892;3.992;2023-08-24T10:56:12;22.90;99.90
21592;DHT22;10958;50.892;3.992;2023-08-24T10:58:38;23.00;99.90
21592;DHT22;10958;50.892;3.992;2023-08-24T11:01:06;23.00;99.90
21592;DHT22;10958;50.892;3.992;2023-08-24T11:03:35;23.10;99.90
21592;DHT22;10958;50.892;3.992;2023-08-24T11:06:01;23.10;99.90
21592;DHT22;10958;50.892;3.992;2023-08-24T11:08:46;23.40;99.90
21592;DHT22;10958;50.892;3.992;2023-08-24T11:11:20;23.00;99.90
21592;DHT22;10958;50.892;3.992;2023-08-24T11:14:29;23.20;99.90
21592;DHT22;10958;50.892;3.992;2023-08-24T11:17:17;23.50;99.90
21592;DHT22;10958;50.892;3.992;2023-08-24T11:19:53;23.60;99.90
21592;DHT22;10958;50.892;3.992;2023-08-24T11:22:20;23.80;99.90
21592;DHT22;10958;50.892;3.992;2023-08-24T11:24:48;23.80;99.90
21592;DHT22;10958;50.892;3.992;2023-08-24T11:27:21;23.60;99.90
21592;DHT22;10958;50.892;3.992;2023-08-24T11:30:00;23.70;99.90
21592;DHT22;10958;50.892;3.992;2023-08-24T11:32:26;23.70;99.90
21592;DHT22;10958;50.892;3.992;2023-08-24T11:34:52;23.80;99.90
21592;DHT22;10958;50.892;3.992;2023-08-24T11:37:21;23.80;99.90
21592;DHT22;10958;50.892;3.992;2023-08-24T11:39:46;23.60;99.90
21592;DHT22;10958;50.892;3.992;2023-08-24T11:42:12;23.50;99.90
21592;DHT22;10958;50.892;3.992;2023-08-24T11:44:45;23.50;99.90
21592;DHT22;10958;50.892;3.992;2023-08-24T11:47:31;23.30;99.90
21592;DHT22;10958;50.892;3.992;2023-08-24T11:49:59;23.20;99.90
21592;DHT22;10958;50.892;3.992;2023-08-24T11:52:25;23.10;99.90
21592;DHT22;10958;50.892;3.992;2023-08-24T11:54:51;22.80;99.90
21592;DHT22;10958;50.892;3.992;2023-08-24T11:57:17;22.70;99.90
21592;DHT22;10958;50.892;3.992;2023-08-24T11:59:43;22.70;99.90
21592;DHT22;10958;50.892;3.992;2023-08-24T12:02:10;22.30;99.90
21592;DHT22;10958;50.892;3.992;2023-08-24T12:04:42;22.30;99.90
21592;DHT22;10958;50.892;3.992;2023-08-24T12:07:14;22.40;99.90
21592;DHT22;10958;50.892;3.992;2023-08-24T12:09:41;22.60;99.90
21592;DHT22;10958;50.892;3.992;2023-08-24T12:14:43;22.90;99.90
21592;DHT22;10958;50.892;3.992;2023-08-24T12:17:10;23.00;99.90
21592;DHT22;10958;50.892;3.992;2023-08-24T12:19:36;23.10;99.90
21592;DHT22;10958;50.892;3.992;2023-08-24T12:22:05;23.30;99.90
21592;DHT22;10958;50.892;3.992;2023-08-24T12:24:31;23.40;99.90
21592;DHT22;10958;50.892;3.992;2023-08-24T12:26:57;23.30;99.90
21592;DHT22;10958;50.892;3.992;2023-08-24T12:29:23;23.20;99.90
21592;DHT22;10958;50.892;3.992;2023-08-24T12:31:49;23.10;99.90
21592;DHT22;10958;50.892;3.992;2023-08-24T12:34:15;23.10;99.90
21592;DHT22;10958;50.892;3.992;2023-08-24T12:36:42;22.80;99.90
21592;DHT22;10958;50.892;3.992;2023-08-24T12:39:11;22.80;99.90
21592;DHT22;10958;50.892;3.992;2023-08-24T12:41:42;22.90;99.90
21592;DHT22;10958;50.892;3.992;2023-08-24T12:44:09;22.80;99.90
21592;DHT22;10958;50.892;3.992;2023-08-24T12:46:35;22.80;99.90
21592;DHT22;10958;50.892;3.992;2023-08-24T12:49:03;22.80;99.90
21592;DHT22;10958;50.892;3.992;2023-08-24T12:51:29;23.00;99.90
21592;DHT22;10958;50.892;3.992;2023-08-24T12:53:54;23.20;99.90
21592;DHT22;10958;50.892;3.992;2023-08-24T12:56:20;23.00;99.90
21592;DHT22;10958;50.892;3.992;2023-08-24T12:58:48;22.90;99.90
21592;DHT22;10958;50.892;3.992;2023-08-24T13:01:14;22.90;99.90
21592;DHT22;10958;50.892;3.992;2023-08-24T13:03:39;23.00;99.90
21592;DHT22;10958;50.892;3.992;2023-08-24T13:06:06;22.80;99.90
21592;DHT22;10958;50.892;3.992;2023-08-24T13:08:31;22.80;99.90
21592;DHT22;10958;50.892;3.992;2023-08-24T13:10:58;22.90;99.90
21592;DHT22;10958;50.892;3.992;2023-08-24T13:13:25;22.90;99.90
21592;DHT22;10958;50.892;3.992;2023-08-24T13:15:53;23.00;99.90
21592;DHT22;10958;50.892;3.992;2023-08-24T13:18:21;22.70;99.90
21592;DHT22;10958;50.892;3.992;2023-08-24T13:20:47;22.80;99.90
21592;DHT22;10958;50.892;3.992;2023-08-24T13:23:14;22.70;99.90
21592;DHT22;10958;50.892;3.992;2023-08-24T13:25:40;22.60;99.90
21592;DHT22;10958;50.892;3.992;2023-08-24T13:28:06;22.80;99.90
21592;DHT22;10958;50.892;3.992;2023-08-24T13:30:35;22.90;99.90
21592;DHT22;10958;50.892;3.992;2023-08-24T13:33:00;23.20;99.90
21592;DHT22;10958;50.892;3.992;2023-08-24T13:35:27;23.10;99.90
21592;DHT22;10958;50.892;3.992;2023-08-24T13:37:52;23.20;99.90
21592;DHT22;10958;50.892;3.992;2023-08-24T13:40:18;23.30;99.90
21592;DHT22;10958;50.892;3.992;2023-08-24T13:42:44;23.20;99.90
21592;DHT22;10958;50.892;3.992;2023-08-24T13:45:10;23.20;99.90
21592;DHT22;10958;50.892;3.992;2023-08-24T13:47:38;23.20;99.90
21592;DHT22;10958;50.892;3.992;2023-08-24T13:50:07;23.20;99.90
21592;DHT22;10958;50.892;3.992;2023-08-24T13:52:33;23.30;99.90
21592;DHT22;10958;50.892;3.992;2023-08-24T13:55:02;23.40;99.90
21592;DHT22;10958;50.892;3.992;2023-08-24T13:57:29;23.60;99.90
21592;DHT22;10958;50.892;3.992;2023-08-24T13:59:55;23.70;99.90
21592;DHT22;10958;50.892;3.992;2023-08-24T14:02:21;23.70;99.90
21592;DHT22;10958;50.892;3.992;2023-08-24T14:04:46;23.70;99.90
21592;DHT22;10958;50.892;3.992;2023-08-24T14:07:12;23.70;99.90
21592;DHT22;10958;50.892;3.992;2023-08-24T14:09:38;23.70;99.90
21592;DHT22;10958;50.892;3.992;2023-08-24T14:12:03;23.70;99.90
21592;DHT22;10958;50.892;3.992;2023-08-24T14:14:29;23.70;99.90
21592;DHT22;10958;50.892;3.992;2023-08-24T14:16:56;24.00;99.90
21592;DHT22;10958;50.892;3.992;2023-08-24T14:19:23;24.20;99.90
21592;DHT22;10958;50.892;3.992;2023-08-24T14:21:52;24.40;99.90
21592;DHT22;10958;50.892;3.992;2023-08-24T14:24:17;24.30;99.90
21592;DHT22;10958;50.892;3.992;2023-08-24T14:26:43;24.20;99.90
21592;DHT22;10958;50.892;3.992;2023-08-24T14:29:12;24.30;99.90
21592;DHT22;10958;50.892;3.992;2023-08-24T14:31:42;24.50;99.90
21592;DHT22;10958;50.892;3.992;2023-08-24T14:34:07;24.20;99.90
21592;DHT22;10958;50.892;3.992;2023-08-24T14:36:33;23.90;99.90
21592;DHT22;10958;50.892;3.992;2023-08-24T14:38:59;23.80;99.90
21592;DHT22;10958;50.892;3.992;2023-08-24T14:41:25;23.80;99.90
21592;DHT22;10958;50.892;3.992;2023-08-24T14:43:50;23.70;99.90
21592;DHT22;10958;50.892;3.992;2023-08-24T14:46:16;23.70;99.90
21592;DHT22;10958;50.892;3.992;2023-08-24T14:48:42;23.50;99.90
21592;DHT22;10958;50.892;3.992;2023-08-24T14:51:08;23.50;99.90
21592;DHT22;10958;50.892;3.992;2023-08-24T14:53:34;23.40;99.90
21592;DHT22;10958;50.892;3.992;2023-08-24T14:55:59;23.50;99.90
21592;DHT22;10958;50.892;3.992;2023-08-24T14:58:26;23.60;99.90
21592;DHT22;10958;50.892;3.992;2023-08-24T15:00:54;23.90;99.90
21592;DHT22;10958;50.892;3.992;2023-08-24T15:03:23;23.90;99.90
21592;DHT22;10958;50.892;3.992;2023-08-24T15:06:16;23.90;99.90
21592;DHT22;10958;50.892;3.992;2023-08-24T15:08:42;24.20;99.90
21592;DHT22;10958;50.892;3.992;2023-08-24T15:11:09;24.30;99.90
21592;DHT22;10958;50.892;3.992;2023-08-24T15:13:38;24.40;99.90
21592;DHT22;10958;50.892;3.992;2023-08-24T15:16:04;24.20;99.90
21592;DHT22;10958;50.892;3.992;2023-08-24T15:18:32;24.30;99.90
21592;DHT22;10958;50.892;3.992;2023-08-24T15:21:01;24.30;99.90
21592;DHT22;10958;50.892;3.992;2023-08-24T15:23:29;24.50;99.90
21592;DHT22;10958;50.892;3.992;2023-08-24T15:25:58;24.40;99.90
21592;DHT22;10958;50.892;3.992;2023-08-24T15:28:25;24.40;99.90
21592;DHT22;10958;50.892;3.992;2023-08-24T15:30:52;24.60;99.90
21592;DHT22;10958;50.892;3.992;2023-08-24T15:33:19;24.60;99.90
21592;DHT22;10958;50.892;3.992;2023-08-24T15:35:48;24.70;99.90
21592;DHT22;10958;50.892;3.992;2023-08-24T15:38:15;24.90;99.90
21592;DHT22;10958;50.892;3.992;2023-08-24T15:40:42;25.00;99.90
21592;DHT22;10958;50.892;3.992;2023-08-24T15:43:07;25.30;99.90
21592;DHT22;10958;50.892;3.992;2023-08-24T15:45:34;25.20;99.90
21592;DHT22;10958;50.892;3.992;2023-08-24T15:48:00;25.30;99.90
21592;DHT22;10958;50.892;3.992;2023-08-24T15:50:26;25.20;99.90